sensor_id;sensor_type;location;lat;lon;timestamp;P1;durP1;ratioP1;P2;durP2;ratioP2
24859;SDS011;12936;52.006;4.350;2023-04-19T00:00:52;7.77;;;6.30;;
24859;SDS011;12936;52.006;4.350;2023-04-19T00:03:40;9.00;;;6.43;;
24859;SDS011;12936;52.006;4.350;2023-04-19T00:06:08;8.07;;;6.37;;
24859;SDS011;12936;52.006;4.350;2023-04-19T00:08:39;9.60;;;6.93;;
24859;SDS011;12936;52.006;4.350;2023-04-19T00:11:10;7.77;;;6.57;;
24859;SDS011;12936;52.006;4.350;2023-04-19T00:13:39;8.37;;;6.80;;
24859;SDS011;12936;52.006;4.350;2023-04-19T00:16:08;8.37;;;7.00;;
24859;SDS011;12936;52.006;4.350;2023-04-19T00:18:36;10.10;;;6.57;;
24859;SDS011;12936;52.006;4.350;2023-04-19T00:21:08;8.47;;;6.47;;
24859;SDS011;12936;52.006;4.350;2023-04-19T00:23:37;9.13;;;6.77;;
24859;SDS011;12936;52.006;4.350;2023-04-19T00:26:06;7.83;;;6.70;;
24859;SDS011;12936;52.006;4.350;2023-04-19T00:28:38;8.37;;;6.20;;
24859;SDS011;12936;52.006;4.350;2023-04-19T00:31:08;7.57;;;6.30;;
24859;SDS011;12936;52.006;4.350;2023-04-19T00:33:37;8.50;;;6.50;;
24859;SDS011;12936;52.006;4.350;2023-04-19T00:36:05;9.97;;;6.60;;
24859;SDS011;12936;52.006;4.350;2023-04-19T00:38:33;9.30;;;6.93;;
24859;SDS011;12936;52.006;4.350;2023-04-19T00:41:02;10.07;;;7.17;;
24859;SDS011;12936;52.006;4.350;2023-04-19T00:43:33;10.63;;;6.27;;
24859;SDS011;12936;52.006;4.350;2023-04-19T00:46:25;9.27;;;7.20;;
24859;SDS011;12936;52.006;4.350;2023-04-19T00:48:54;11.40;;;7.07;;
24859;SDS011;12936;52.006;4.350;2023-04-19T00:51:23;8.70;;;6.63;;
24859;SDS011;12936;52.006;4.350;2023-04-19T00:53:53;11.97;;;7.03;;
24859;SDS011;12936;52.006;4.350;2023-04-19T00:56:22;9.23;;;7.10;;
24859;SDS011;12936;52.006;4.350;2023-04-19T00:58:55;8.80;;;7.03;;
24859;SDS011;12936;52.006;4.350;2023-04-19T01:01:24;8.10;;;6.90;;
24859;SDS011;12936;52.006;4.350;2023-04-19T01:03:53;10.30;;;7.10;;
24859;SDS011;12936;52.006;4.350;2023-04-19T01:06:21;12.33;;;7.10;;
24859;SDS011;12936;52.006;4.350;2023-04-19T01:08:53;8.93;;;7.10;;
24859;SDS011;12936;52.006;4.350;2023-04-19T01:11:22;10.93;;;8.00;;
24859;SDS011;12936;52.006;4.350;2023-04-19T01:13:50;10.47;;;7.17;;
24859;SDS011;12936;52.006;4.350;2023-04-19T01:16:19;12.33;;;7.60;;
24859;SDS011;12936;52.006;4.350;2023-04-19T01:19:11;10.13;;;7.43;;
24859;SDS011;12936;52.006;4.350;2023-04-19T01:21:39;13.67;;;7.10;;
24859;SDS011;12936;52.006;4.350;2023-04-19T01:24:11;11.87;;;7.80;;
24859;SDS011;12936;52.006;4.350;2023-04-19T01:26:40;10.70;;;8.03;;
24859;SDS011;12936;52.006;4.350;2023-04-19T01:29:08;10.33;;;7.50;;
24859;SDS011;12936;52.006;4.350;2023-04-19T01:31:39;12.20;;;7.57;;
24859;SDS011;12936;52.006;4.350;2023-04-19T01:34:07;11.80;;;7.93;;
24859;SDS011;12936;52.006;4.350;2023-04-19T01:37:01;9.67;;;8.43;;
24859;SDS011;12936;52.006;4.350;2023-04-19T01:39:30;10.53;;;8.20;;
24859;SDS011;12936;52.006;4.350;2023-04-19T01:41:58;10.03;;;7.70;;
24859;SDS011;12936;52.006;4.350;2023-04-19T01:44:29;11.30;;;7.63;;
24859;SDS011;12936;52.006;4.350;2023-04-19T01:46:59;10.67;;;7.73;;
24859;SDS011;12936;52.006;4.350;2023-04-19T01:49:28;11.27;;;8.00;;
24859;SDS011;12936;52.006;4.350;2023-04-19T01:51:57;10.67;;;7.63;;
24859;SDS011;12936;52.006;4.350;2023-04-19T01:54:28;11.47;;;7.77;;
24859;SDS011;12936;52.006;4.350;2023-04-19T01:57:02;10.87;;;8.27;;
24859;SDS011;12936;52.006;4.350;2023-04-19T01:59:32;9.73;;;7.87;;
24859;SDS011;12936;52.006;4.350;2023-04-19T02:02:21;11.17;;;7.93;;
24859;SDS011;12936;52.006;4.350;2023-04-19T02:04:50;9.93;;;7.83;;
24859;SDS011;12936;52.006;4.350;2023-04-19T02:07:18;10.57;;;7.90;;
24859;SDS011;12936;52.006;4.350;2023-04-19T02:09:57;11.33;;;7.10;;
24859;SDS011;12936;52.006;4.350;2023-04-19T02:12:26;9.03;;;7.33;;
24859;SDS011;12936;52.006;4.350;2023-04-19T02:14:56;10.60;;;8.13;;
24859;SDS011;12936;52.006;4.350;2023-04-19T02:17:24;9.77;;;7.73;;
24859;SDS011;12936;52.006;4.350;2023-04-19T02:19:55;11.73;;;8.07;;
24859;SDS011;12936;52.006;4.350;2023-04-19T02:22:25;9.63;;;7.40;;
24859;SDS011;12936;52.006;4.350;2023-04-19T02:24:53;10.20;;;7.87;;
24859;SDS011;12936;52.006;4.350;2023-04-19T02:27:25;10.93;;;8.00;;
24859;SDS011;12936;52.006;4.350;2023-04-19T02:29:54;9.90;;;8.23;;
24859;SDS011;12936;52.006;4.350;2023-04-19T02:32:23;11.37;;;8.30;;
24859;SDS011;12936;52.006;4.350;2023-04-19T02:34:54;10.47;;;7.93;;
24859;SDS011;12936;52.006;4.350;2023-04-19T02:37:22;11.73;;;8.47;;
24859;SDS011;12936;52.006;4.350;2023-04-19T02:39:51;10.07;;;7.80;;
24859;SDS011;12936;52.006;4.350;2023-04-19T02:42:19;16.43;;;8.80;;
24859;SDS011;12936;52.006;4.350;2023-04-19T02:44:51;11.70;;;8.00;;
24859;SDS011;12936;52.006;4.350;2023-04-19T02:47:19;14.13;;;9.00;;
24859;SDS011;12936;52.006;4.350;2023-04-19T02:49:49;11.73;;;7.97;;
24859;SDS011;12936;52.006;4.350;2023-04-19T02:52:17;12.17;;;9.23;;
24859;SDS011;12936;52.006;4.350;2023-04-19T02:54:45;10.60;;;8.87;;
24859;SDS011;12936;52.006;4.350;2023-04-19T02:57:16;13.33;;;8.27;;
24859;SDS011;12936;52.006;4.350;2023-04-19T02:59:45;11.23;;;8.40;;
24859;SDS011;12936;52.006;4.350;2023-04-19T03:02:15;15.97;;;8.97;;
24859;SDS011;12936;52.006;4.350;2023-04-19T03:04:44;12.13;;;8.77;;
24859;SDS011;12936;52.006;4.350;2023-04-19T03:07:15;12.60;;;8.57;;
24859;SDS011;12936;52.006;4.350;2023-04-19T03:09:43;14.53;;;8.73;;
24859;SDS011;12936;52.006;4.350;2023-04-19T03:12:12;12.03;;;9.40;;
24859;SDS011;12936;52.006;4.350;2023-04-19T03:14:40;11.00;;;8.83;;
24859;SDS011;12936;52.006;4.350;2023-04-19T03:17:33;11.60;;;8.73;;
24859;SDS011;12936;52.006;4.350;2023-04-19T03:20:02;12.30;;;9.37;;
24859;SDS011;12936;52.006;4.350;2023-04-19T03:22:37;14.43;;;9.07;;
24859;SDS011;12936;52.006;4.350;2023-04-19T03:25:08;13.43;;;9.00;;
24859;SDS011;12936;52.006;4.350;2023-04-19T03:27:38;12.27;;;8.70;;
24859;SDS011;12936;52.006;4.350;2023-04-19T03:30:20;12.10;;;8.70;;
24859;SDS011;12936;52.006;4.350;2023-04-19T03:32:51;14.97;;;9.63;;
24859;SDS011;12936;52.006;4.350;2023-04-19T03:35:23;13.47;;;9.07;;
24859;SDS011;12936;52.006;4.350;2023-04-19T03:37:54;11.83;;;8.63;;
24859;SDS011;12936;52.006;4.350;2023-04-19T03:40:22;12.80;;;9.20;;
24859;SDS011;12936;52.006;4.350;2023-04-19T03:42:50;13.57;;;9.07;;
24859;SDS011;12936;52.006;4.350;2023-04-19T03:45:22;13.37;;;9.53;;
24859;SDS011;12936;52.006;4.350;2023-04-19T03:47:51;16.93;;;8.60;;
24859;SDS011;12936;52.006;4.350;2023-04-19T03:50:20;11.43;;;8.57;;
24859;SDS011;12936;52.006;4.350;2023-04-19T03:52:51;12.87;;;8.33;;
24859;SDS011;12936;52.006;4.350;2023-04-19T03:55:20;11.17;;;8.93;;
24859;SDS011;12936;52.006;4.350;2023-04-19T03:57:48;13.63;;;9.40;;
24859;SDS011;12936;52.006;4.350;2023-04-19T04:00:17;11.00;;;8.57;;
24859;SDS011;12936;52.006;4.350;2023-04-19T04:02:47;10.93;;;9.00;;
24859;SDS011;12936;52.006;4.350;2023-04-19T04:05:17;11.10;;;8.70;;
24859;SDS011;12936;52.006;4.350;2023-04-19T04:07:46;14.50;;;9.43;;
24859;SDS011;12936;52.006;4.350;2023-04-19T04:10:14;13.43;;;8.57;;
24859;SDS011;12936;52.006;4.350;2023-04-19T04:12:44;13.37;;;8.77;;
24859;SDS011;12936;52.006;4.350;2023-04-19T04:15:12;12.67;;;8.53;;
24859;SDS011;12936;52.006;4.350;2023-04-19T04:18:00;11.70;;;8.20;;
24859;SDS011;12936;52.006;4.350;2023-04-19T04:20:35;11.00;;;8.10;;
24859;SDS011;12936;52.006;4.350;2023-04-19T04:23:05;12.77;;;9.13;;
24859;SDS011;12936;52.006;4.350;2023-04-19T04:25:39;14.47;;;9.07;;
24859;SDS011;12936;52.006;4.350;2023-04-19T04:28:28;12.43;;;8.67;;
24859;SDS011;12936;52.006;4.350;2023-04-19T04:31:19;11.87;;;8.70;;
24859;SDS011;12936;52.006;4.350;2023-04-19T04:33:51;10.87;;;8.23;;
24859;SDS011;12936;52.006;4.350;2023-04-19T04:36:24;12.00;;;8.90;;
24859;SDS011;12936;52.006;4.350;2023-04-19T04:38:56;17.03;;;8.70;;
24859;SDS011;12936;52.006;4.350;2023-04-19T04:41:27;12.53;;;8.60;;
24859;SDS011;12936;52.006;4.350;2023-04-19T04:43:56;13.10;;;8.83;;
24859;SDS011;12936;52.006;4.350;2023-04-19T04:46:45;11.10;;;8.17;;
24859;SDS011;12936;52.006;4.350;2023-04-19T04:49:13;14.80;;;8.50;;
24859;SDS011;12936;52.006;4.350;2023-04-19T04:51:43;11.53;;;8.03;;
24859;SDS011;12936;52.006;4.350;2023-04-19T04:54:11;15.50;;;8.30;;
24859;SDS011;12936;52.006;4.350;2023-04-19T04:56:39;12.40;;;8.27;;
24859;SDS011;12936;52.006;4.350;2023-04-19T04:59:07;12.10;;;8.73;;
24859;SDS011;12936;52.006;4.350;2023-04-19T05:01:35;15.20;;;8.50;;
24859;SDS011;12936;52.006;4.350;2023-04-19T05:04:03;8.90;;;7.20;;
24859;SDS011;12936;52.006;4.350;2023-04-19T05:06:31;10.53;;;7.97;;
24859;SDS011;12936;52.006;4.350;2023-04-19T05:09:01;11.40;;;8.13;;
24859;SDS011;12936;52.006;4.350;2023-04-19T05:11:29;13.30;;;8.23;;
24859;SDS011;12936;52.006;4.350;2023-04-19T05:13:57;11.80;;;8.50;;
24859;SDS011;12936;52.006;4.350;2023-04-19T05:16:26;10.53;;;8.17;;
24859;SDS011;12936;52.006;4.350;2023-04-19T05:18:54;12.27;;;7.70;;
24859;SDS011;12936;52.006;4.350;2023-04-19T05:21:22;11.57;;;8.17;;
24859;SDS011;12936;52.006;4.350;2023-04-19T05:23:51;13.07;;;8.27;;
24859;SDS011;12936;52.006;4.350;2023-04-19T05:26:21;10.63;;;7.57;;
24859;SDS011;12936;52.006;4.350;2023-04-19T05:28:49;12.73;;;7.77;;
24859;SDS011;12936;52.006;4.350;2023-04-19T05:31:17;9.90;;;7.50;;
24859;SDS011;12936;52.006;4.350;2023-04-19T05:33:46;10.40;;;7.83;;
24859;SDS011;12936;52.006;4.350;2023-04-19T05:36:14;10.23;;;7.80;;
24859;SDS011;12936;52.006;4.350;2023-04-19T05:38:42;13.87;;;8.67;;
24859;SDS011;12936;52.006;4.350;2023-04-19T05:41:11;11.17;;;7.80;;
24859;SDS011;12936;52.006;4.350;2023-04-19T05:43:43;9.80;;;7.87;;
24859;SDS011;12936;52.006;4.350;2023-04-19T05:46:11;11.13;;;7.53;;
24859;SDS011;12936;52.006;4.350;2023-04-19T05:48:39;10.80;;;8.10;;
24859;SDS011;12936;52.006;4.350;2023-04-19T05:51:07;13.10;;;7.20;;
24859;SDS011;12936;52.006;4.350;2023-04-19T05:53:35;10.83;;;7.10;;
24859;SDS011;12936;52.006;4.350;2023-04-19T05:56:03;15.80;;;7.20;;
24859;SDS011;12936;52.006;4.350;2023-04-19T05:58:32;10.47;;;7.47;;
24859;SDS011;12936;52.006;4.350;2023-04-19T06:01:01;10.83;;;7.23;;
24859;SDS011;12936;52.006;4.350;2023-04-19T06:03:31;10.30;;;7.63;;
24859;SDS011;12936;52.006;4.350;2023-04-19T06:06:00;9.23;;;7.53;;
24859;SDS011;12936;52.006;4.350;2023-04-19T06:08:28;10.33;;;7.20;;
24859;SDS011;12936;52.006;4.350;2023-04-19T06:10:56;9.13;;;7.20;;
24859;SDS011;12936;52.006;4.350;2023-04-19T06:13:40;11.60;;;7.27;;
24859;SDS011;12936;52.006;4.350;2023-04-19T06:16:11;10.87;;;7.23;;
24859;SDS011;12936;52.006;4.350;2023-04-19T06:18:39;11.17;;;7.73;;
24859;SDS011;12936;52.006;4.350;2023-04-19T06:21:08;13.43;;;7.77;;
24859;SDS011;12936;52.006;4.350;2023-04-19T06:23:36;9.67;;;7.23;;
24859;SDS011;12936;52.006;4.350;2023-04-19T06:26:04;13.43;;;7.80;;
24859;SDS011;12936;52.006;4.350;2023-04-19T06:28:32;8.77;;;7.00;;
24859;SDS011;12936;52.006;4.350;2023-04-19T06:31:01;11.97;;;7.80;;
24859;SDS011;12936;52.006;4.350;2023-04-19T06:33:30;11.67;;;7.63;;
24859;SDS011;12936;52.006;4.350;2023-04-19T06:35:58;11.70;;;6.83;;
24859;SDS011;12936;52.006;4.350;2023-04-19T06:38:26;9.83;;;6.93;;
24859;SDS011;12936;52.006;4.350;2023-04-19T06:40:55;11.13;;;6.30;;
24859;SDS011;12936;52.006;4.350;2023-04-19T06:43:23;12.83;;;7.13;;
24859;SDS011;12936;52.006;4.350;2023-04-19T06:45:56;10.63;;;6.93;;
24859;SDS011;12936;52.006;4.350;2023-04-19T06:48:27;10.17;;;7.30;;
24859;SDS011;12936;52.006;4.350;2023-04-19T06:50:56;9.93;;;7.03;;
24859;SDS011;12936;52.006;4.350;2023-04-19T06:53:24;9.90;;;7.10;;
24859;SDS011;12936;52.006;4.350;2023-04-19T06:55:56;9.63;;;5.87;;
24859;SDS011;12936;52.006;4.350;2023-04-19T06:58:25;9.20;;;7.07;;
24859;SDS011;12936;52.006;4.350;2023-04-19T07:00:54;9.57;;;6.53;;
24859;SDS011;12936;52.006;4.350;2023-04-19T07:03:22;9.53;;;6.90;;
24859;SDS011;12936;52.006;4.350;2023-04-19T07:05:50;8.43;;;6.80;;
24859;SDS011;12936;52.006;4.350;2023-04-19T07:08:23;10.67;;;6.67;;
24859;SDS011;12936;52.006;4.350;2023-04-19T07:11:00;8.90;;;6.13;;
24859;SDS011;12936;52.006;4.350;2023-04-19T07:13:28;8.93;;;6.00;;
24859;SDS011;12936;52.006;4.350;2023-04-19T07:15:56;7.93;;;6.30;;
24859;SDS011;12936;52.006;4.350;2023-04-19T07:18:25;10.33;;;6.80;;
24859;SDS011;12936;52.006;4.350;2023-04-19T07:20:53;10.80;;;7.03;;
24859;SDS011;12936;52.006;4.350;2023-04-19T07:23:22;10.73;;;7.30;;
24859;SDS011;12936;52.006;4.350;2023-04-19T07:25:50;9.87;;;6.70;;
24859;SDS011;12936;52.006;4.350;2023-04-19T07:28:19;11.47;;;6.23;;
24859;SDS011;12936;52.006;4.350;2023-04-19T07:30:47;10.03;;;6.20;;
24859;SDS011;12936;52.006;4.350;2023-04-19T07:33:15;10.77;;;6.43;;
24859;SDS011;12936;52.006;4.350;2023-04-19T07:35:43;11.37;;;6.10;;
24859;SDS011;12936;52.006;4.350;2023-04-19T07:38:11;8.90;;;6.50;;
24859;SDS011;12936;52.006;4.350;2023-04-19T07:40:41;10.40;;;6.27;;
24859;SDS011;12936;52.006;4.350;2023-04-19T07:43:09;10.23;;;6.40;;
24859;SDS011;12936;52.006;4.350;2023-04-19T07:45:37;10.40;;;7.07;;
24859;SDS011;12936;52.006;4.350;2023-04-19T07:48:06;10.80;;;5.70;;
24859;SDS011;12936;52.006;4.350;2023-04-19T07:50:34;9.57;;;6.73;;
24859;SDS011;12936;52.006;4.350;2023-04-19T07:53:03;8.73;;;6.33;;
24859;SDS011;12936;52.006;4.350;2023-04-19T07:55:31;9.57;;;6.33;;
24859;SDS011;12936;52.006;4.350;2023-04-19T07:58:01;12.87;;;6.43;;
24859;SDS011;12936;52.006;4.350;2023-04-19T08:00:29;7.73;;;5.83;;
24859;SDS011;12936;52.006;4.350;2023-04-19T08:02:59;7.03;;;5.23;;
24859;SDS011;12936;52.006;4.350;2023-04-19T08:05:29;7.30;;;5.97;;
24859;SDS011;12936;52.006;4.350;2023-04-19T08:07:57;8.90;;;5.43;;
24859;SDS011;12936;52.006;4.350;2023-04-19T08:10:25;8.83;;;6.10;;
24859;SDS011;12936;52.006;4.350;2023-04-19T08:12:55;11.00;;;6.00;;
24859;SDS011;12936;52.006;4.350;2023-04-19T08:15:33;7.87;;;5.63;;
24859;SDS011;12936;52.006;4.350;2023-04-19T08:18:04;9.37;;;5.47;;
24859;SDS011;12936;52.006;4.350;2023-04-19T08:20:32;7.87;;;5.57;;
24859;SDS011;12936;52.006;4.350;2023-04-19T08:23:02;9.47;;;5.70;;
24859;SDS011;12936;52.006;4.350;2023-04-19T08:25:46;11.67;;;5.67;;
24859;SDS011;12936;52.006;4.350;2023-04-19T08:28:14;9.10;;;5.13;;
24859;SDS011;12936;52.006;4.350;2023-04-19T08:30:44;13.53;;;5.63;;
24859;SDS011;12936;52.006;4.350;2023-04-19T08:33:12;8.43;;;4.90;;
24859;SDS011;12936;52.006;4.350;2023-04-19T08:35:41;7.27;;;5.20;;
24859;SDS011;12936;52.006;4.350;2023-04-19T08:38:10;12.37;;;5.17;;
24859;SDS011;12936;52.006;4.350;2023-04-19T08:40:40;9.17;;;4.87;;
24859;SDS011;12936;52.006;4.350;2023-04-19T08:43:12;11.30;;;5.30;;
24859;SDS011;12936;52.006;4.350;2023-04-19T08:45:41;9.83;;;5.43;;
24859;SDS011;12936;52.006;4.350;2023-04-19T08:48:13;12.20;;;4.83;;
24859;SDS011;12936;52.006;4.350;2023-04-19T08:50:43;8.63;;;5.00;;
24859;SDS011;12936;52.006;4.350;2023-04-19T08:53:29;6.77;;;5.00;;
24859;SDS011;12936;52.006;4.350;2023-04-19T08:55:57;11.33;;;5.20;;
24859;SDS011;12936;52.006;4.350;2023-04-19T08:58:30;10.73;;;5.10;;
24859;SDS011;12936;52.006;4.350;2023-04-19T09:01:02;7.03;;;4.87;;
24859;SDS011;12936;52.006;4.350;2023-04-19T09:03:32;10.43;;;5.23;;
24859;SDS011;12936;52.006;4.350;2023-04-19T09:06:21;9.73;;;4.53;;
24859;SDS011;12936;52.006;4.350;2023-04-19T09:08:49;5.93;;;3.97;;
24859;SDS011;12936;52.006;4.350;2023-04-19T09:11:31;6.87;;;4.87;;
24859;SDS011;12936;52.006;4.350;2023-04-19T09:14:07;7.67;;;4.33;;
24859;SDS011;12936;52.006;4.350;2023-04-19T09:16:35;6.40;;;3.97;;
24859;SDS011;12936;52.006;4.350;2023-04-19T09:19:06;6.13;;;4.00;;
24859;SDS011;12936;52.006;4.350;2023-04-19T09:21:49;4.57;;;3.80;;
24859;SDS011;12936;52.006;4.350;2023-04-19T09:24:32;9.13;;;3.87;;
24859;SDS011;12936;52.006;4.350;2023-04-19T09:27:25;13.50;;;3.90;;
24859;SDS011;12936;52.006;4.350;2023-04-19T09:29:55;4.40;;;3.47;;
24859;SDS011;12936;52.006;4.350;2023-04-19T09:32:24;6.27;;;3.90;;
24859;SDS011;12936;52.006;4.350;2023-04-19T09:34:54;7.13;;;3.47;;
24859;SDS011;12936;52.006;4.350;2023-04-19T09:37:24;5.23;;;3.60;;
24859;SDS011;12936;52.006;4.350;2023-04-19T09:40:22;6.40;;;3.67;;
24859;SDS011;12936;52.006;4.350;2023-04-19T09:42:51;7.10;;;3.40;;
24859;SDS011;12936;52.006;4.350;2023-04-19T09:45:21;5.70;;;3.30;;
24859;SDS011;12936;52.006;4.350;2023-04-19T09:48:02;5.17;;;3.30;;
24859;SDS011;12936;52.006;4.350;2023-04-19T09:50:34;7.87;;;3.50;;
24859;SDS011;12936;52.006;4.350;2023-04-19T09:53:19;4.97;;;3.30;;
24859;SDS011;12936;52.006;4.350;2023-04-19T09:55:48;6.00;;;3.40;;
24859;SDS011;12936;52.006;4.350;2023-04-19T09:58:27;5.03;;;3.23;;
24859;SDS011;12936;52.006;4.350;2023-04-19T10:01:14;5.07;;;3.27;;
24859;SDS011;12936;52.006;4.350;2023-04-19T10:03:44;6.07;;;3.10;;
24859;SDS011;12936;52.006;4.350;2023-04-19T10:06:17;4.03;;;3.27;;
24859;SDS011;12936;52.006;4.350;2023-04-19T10:08:49;4.00;;;3.13;;
24859;SDS011;12936;52.006;4.350;2023-04-19T10:11:19;5.00;;;2.87;;
24859;SDS011;12936;52.006;4.350;2023-04-19T10:13:48;6.73;;;3.20;;
24859;SDS011;12936;52.006;4.350;2023-04-19T10:16:22;5.60;;;2.80;;
24859;SDS011;12936;52.006;4.350;2023-04-19T10:18:51;9.20;;;2.90;;
24859;SDS011;12936;52.006;4.350;2023-04-19T10:21:22;3.83;;;2.70;;
24859;SDS011;12936;52.006;4.350;2023-04-19T10:23:52;4.10;;;2.73;;
24859;SDS011;12936;52.006;4.350;2023-04-19T10:26:21;4.23;;;2.90;;
24859;SDS011;12936;52.006;4.350;2023-04-19T10:28:52;5.57;;;2.60;;
24859;SDS011;12936;52.006;4.350;2023-04-19T10:31:23;4.10;;;2.40;;
24859;SDS011;12936;52.006;4.350;2023-04-19T10:33:52;3.77;;;2.50;;
24859;SDS011;12936;52.006;4.350;2023-04-19T10:36:23;4.67;;;2.43;;
24859;SDS011;12936;52.006;4.350;2023-04-19T10:38:55;3.43;;;2.43;;
24859;SDS011;12936;52.006;4.350;2023-04-19T10:41:23;2.90;;;2.30;;
24859;SDS011;12936;52.006;4.350;2023-04-19T10:44:23;9.70;;;2.73;;
24859;SDS011;12936;52.006;4.350;2023-04-19T10:46:51;2.57;;;2.00;;
24859;SDS011;12936;52.006;4.350;2023-04-19T10:49:20;5.37;;;2.60;;
24859;SDS011;12936;52.006;4.350;2023-04-19T10:51:51;3.50;;;1.97;;
24859;SDS011;12936;52.006;4.350;2023-04-19T10:54:29;4.23;;;1.90;;
24859;SDS011;12936;52.006;4.350;2023-04-19T10:57:00;3.17;;;1.87;;
24859;SDS011;12936;52.006;4.350;2023-04-19T10:59:30;4.60;;;1.77;;
24859;SDS011;12936;52.006;4.350;2023-04-19T11:01:59;4.13;;;1.83;;
24859;SDS011;12936;52.006;4.350;2023-04-19T11:07:40;2.43;;;1.57;;
24859;SDS011;12936;52.006;4.350;2023-04-19T11:10:09;2.30;;;1.80;;
24859;SDS011;12936;52.006;4.350;2023-04-19T11:12:44;2.97;;;1.80;;
24859;SDS011;12936;52.006;4.350;2023-04-19T11:15:12;2.10;;;1.60;;
24859;SDS011;12936;52.006;4.350;2023-04-19T11:17:40;3.17;;;2.00;;
24859;SDS011;12936;52.006;4.350;2023-04-19T11:20:09;5.77;;;1.90;;
24859;SDS011;12936;52.006;4.350;2023-04-19T11:22:40;6.70;;;1.70;;
24859;SDS011;12936;52.006;4.350;2023-04-19T11:25:10;3.50;;;1.93;;
24859;SDS011;12936;52.006;4.350;2023-04-19T11:27:39;5.00;;;1.80;;
24859;SDS011;12936;52.006;4.350;2023-04-19T11:30:08;3.80;;;1.93;;
24859;SDS011;12936;52.006;4.350;2023-04-19T11:32:39;4.47;;;2.10;;
24859;SDS011;12936;52.006;4.350;2023-04-19T11:35:14;2.70;;;1.77;;
24859;SDS011;12936;52.006;4.350;2023-04-19T11:37:47;3.80;;;1.77;;
24859;SDS011;12936;52.006;4.350;2023-04-19T11:40:16;2.63;;;1.93;;
24859;SDS011;12936;52.006;4.350;2023-04-19T11:42:45;3.57;;;2.00;;
24859;SDS011;12936;52.006;4.350;2023-04-19T11:45:23;2.33;;;1.60;;
24859;SDS011;12936;52.006;4.350;2023-04-19T11:47:58;3.43;;;1.80;;
24859;SDS011;12936;52.006;4.350;2023-04-19T11:50:29;6.90;;;2.63;;
24859;SDS011;12936;52.006;4.350;2023-04-19T11:53:14;3.77;;;2.07;;
24859;SDS011;12936;52.006;4.350;2023-04-19T11:55:44;5.37;;;2.07;;
24859;SDS011;12936;52.006;4.350;2023-04-19T11:58:23;3.77;;;2.17;;
24859;SDS011;12936;52.006;4.350;2023-04-19T12:00:54;3.23;;;1.93;;
24859;SDS011;12936;52.006;4.350;2023-04-19T12:03:23;4.63;;;2.10;;
24859;SDS011;12936;52.006;4.350;2023-04-19T12:05:56;6.57;;;1.80;;
24859;SDS011;12936;52.006;4.350;2023-04-19T12:08:30;4.90;;;1.93;;
24859;SDS011;12936;52.006;4.350;2023-04-19T12:10:59;3.63;;;1.88;;
24859;SDS011;12936;52.006;4.350;2023-04-19T12:13:29;3.33;;;2.13;;
24859;SDS011;12936;52.006;4.350;2023-04-19T12:15:58;2.93;;;1.90;;
24859;SDS011;12936;52.006;4.350;2023-04-19T12:18:27;2.20;;;1.83;;
24859;SDS011;12936;52.006;4.350;2023-04-19T12:21:08;4.07;;;1.57;;
24859;SDS011;12936;52.006;4.350;2023-04-19T12:23:38;3.83;;;1.90;;
24859;SDS011;12936;52.006;4.350;2023-04-19T12:26:06;6.33;;;1.93;;
24859;SDS011;12936;52.006;4.350;2023-04-19T12:28:34;2.83;;;1.80;;
24859;SDS011;12936;52.006;4.350;2023-04-19T12:31:02;4.65;;;1.58;;
24859;SDS011;12936;52.006;4.350;2023-04-19T12:33:31;2.22;;;1.50;;
24859;SDS011;12936;52.006;4.350;2023-04-19T12:35:59;5.03;;;2.10;;
24859;SDS011;12936;52.006;4.350;2023-04-19T12:38:27;10.90;;;2.00;;
24859;SDS011;12936;52.006;4.350;2023-04-19T12:40:56;2.80;;;1.42;;
24859;SDS011;12936;52.006;4.350;2023-04-19T12:43:24;3.38;;;1.70;;
24859;SDS011;12936;52.006;4.350;2023-04-19T12:45:52;4.95;;;1.70;;
24859;SDS011;12936;52.006;4.350;2023-04-19T12:48:20;3.38;;;1.75;;
24859;SDS011;12936;52.006;4.350;2023-04-19T12:50:48;2.85;;;1.88;;
24859;SDS011;12936;52.006;4.350;2023-04-19T12:53:17;6.50;;;2.13;;
24859;SDS011;12936;52.006;4.350;2023-04-19T12:55:45;3.13;;;1.90;;
24859;SDS011;12936;52.006;4.350;2023-04-19T12:58:18;3.30;;;1.88;;
24859;SDS011;12936;52.006;4.350;2023-04-19T13:00:47;3.28;;;1.63;;
24859;SDS011;12936;52.006;4.350;2023-04-19T13:03:15;5.85;;;1.60;;
24859;SDS011;12936;52.006;4.350;2023-04-19T13:05:44;3.08;;;1.67;;
24859;SDS011;12936;52.006;4.350;2023-04-19T13:08:12;17.50;;;3.00;;
24859;SDS011;12936;52.006;4.350;2023-04-19T13:10:40;6.25;;;1.80;;
24859;SDS011;12936;52.006;4.350;2023-04-19T13:13:08;5.25;;;1.90;;
24859;SDS011;12936;52.006;4.350;2023-04-19T13:15:38;3.85;;;1.95;;
24859;SDS011;12936;52.006;4.350;2023-04-19T13:18:07;6.93;;;2.25;;
24859;SDS011;12936;52.006;4.350;2023-04-19T13:20:35;3.65;;;1.90;;
24859;SDS011;12936;52.006;4.350;2023-04-19T13:23:03;4.25;;;2.13;;
24859;SDS011;12936;52.006;4.350;2023-04-19T13:25:31;5.20;;;1.95;;
24859;SDS011;12936;52.006;4.350;2023-04-19T13:27:59;2.22;;;1.92;;
24859;SDS011;12936;52.006;4.350;2023-04-19T13:30:27;4.43;;;2.15;;
24859;SDS011;12936;52.006;4.350;2023-04-19T13:32:57;2.67;;;2.22;;
24859;SDS011;12936;52.006;4.350;2023-04-19T13:35:26;5.35;;;2.20;;
24859;SDS011;12936;52.006;4.350;2023-04-19T13:37:54;6.95;;;2.40;;
24859;SDS011;12936;52.006;4.350;2023-04-19T13:40:22;6.15;;;2.50;;
24859;SDS011;12936;52.006;4.350;2023-04-19T13:42:50;6.05;;;2.45;;
24859;SDS011;12936;52.006;4.350;2023-04-19T13:45:19;4.50;;;2.80;;
24859;SDS011;12936;52.006;4.350;2023-04-19T13:47:47;5.18;;;2.90;;
24859;SDS011;12936;52.006;4.350;2023-04-19T13:50:17;4.63;;;2.38;;
24859;SDS011;12936;52.006;4.350;2023-04-19T13:52:46;6.90;;;2.40;;
24859;SDS011;12936;52.006;4.350;2023-04-19T13:55:14;4.80;;;2.53;;
24859;SDS011;12936;52.006;4.350;2023-04-19T13:57:42;7.55;;;2.45;;
24859;SDS011;12936;52.006;4.350;2023-04-19T14:00:10;2.72;;;2.25;;
24859;SDS011;12936;52.006;4.350;2023-04-19T14:02:39;3.40;;;2.20;;
24859;SDS011;12936;52.006;4.350;2023-04-19T14:05:08;4.50;;;2.55;;
24859;SDS011;12936;52.006;4.350;2023-04-19T14:07:39;4.45;;;2.78;;
24859;SDS011;12936;52.006;4.350;2023-04-19T14:10:07;4.22;;;2.70;;
24859;SDS011;12936;52.006;4.350;2023-04-19T14:12:36;5.65;;;2.90;;
24859;SDS011;12936;52.006;4.350;2023-04-19T14:15:04;3.67;;;2.90;;
24859;SDS011;12936;52.006;4.350;2023-04-19T14:17:33;4.95;;;2.55;;
24859;SDS011;12936;52.006;4.350;2023-04-19T14:20:02;3.22;;;2.70;;
24859;SDS011;12936;52.006;4.350;2023-04-19T14:22:32;5.68;;;2.95;;
24859;SDS011;12936;52.006;4.350;2023-04-19T14:25:02;7.05;;;2.67;;
24859;SDS011;12936;52.006;4.350;2023-04-19T14:27:31;4.10;;;2.60;;
24859;SDS011;12936;52.006;4.350;2023-04-19T14:29:59;4.75;;;2.72;;
24859;SDS011;12936;52.006;4.350;2023-04-19T14:32:28;4.18;;;2.50;;
24859;SDS011;12936;52.006;4.350;2023-04-19T14:34:56;3.80;;;2.28;;
24859;SDS011;12936;52.006;4.350;2023-04-19T14:37:24;6.85;;;2.60;;
24859;SDS011;12936;52.006;4.350;2023-04-19T14:39:52;4.53;;;2.67;;
24859;SDS011;12936;52.006;4.350;2023-04-19T14:42:22;3.63;;;2.40;;
24859;SDS011;12936;52.006;4.350;2023-04-19T14:44:50;3.60;;;2.13;;
24859;SDS011;12936;52.006;4.350;2023-04-19T14:47:18;4.00;;;2.53;;
24859;SDS011;12936;52.006;4.350;2023-04-19T14:50:27;4.85;;;3.05;;
24859;SDS011;12936;52.006;4.350;2023-04-19T14:53:09;2.70;;;2.45;;
24859;SDS011;12936;52.006;4.350;2023-04-19T14:55:37;3.28;;;2.55;;
24859;SDS011;12936;52.006;4.350;2023-04-19T14:58:07;4.25;;;2.60;;
24859;SDS011;12936;52.006;4.350;2023-04-19T15:00:35;3.95;;;2.53;;
24859;SDS011;12936;52.006;4.350;2023-04-19T15:03:03;4.35;;;2.60;;
24859;SDS011;12936;52.006;4.350;2023-04-19T15:05:33;6.50;;;2.70;;
24859;SDS011;12936;52.006;4.350;2023-04-19T15:08:02;4.32;;;2.80;;